sensor_id;sensor_type;location;lat;lon;timestamp;pressure;altitude;pressure_sealevel;temperature
29549;BMP280;16487;53.094;8.800;2024-03-02T00:00:39;100251.44;;;7.45
29549;BMP280;16487;53.094;8.800;2024-03-02T00:03:07;100256.59;;;7.46
29549;BMP280;16487;53.094;8.800;2024-03-02T00:05:35;100251.19;;;7.41
29549;BMP280;16487;53.094;8.800;2024-03-02T00:08:04;100250.94;;;7.43
29549;BMP280;16487;53.094;8.800;2024-03-02T00:10:36;100254.69;;;7.42
29549;BMP280;16487;53.094;8.800;2024-03-02T00:13:04;100250.09;;;7.37
29549;BMP280;16487;53.094;8.800;2024-03-02T00:15:41;100252.47;;;7.34
29549;BMP280;16487;53.094;8.800;2024-03-02T00:18:10;100253.25;;;7.34
29549;BMP280;16487;53.094;8.800;2024-03-02T00:20:40;100253.03;;;7.36
29549;BMP280;16487;53.094;8.800;2024-03-02T00:23:08;100253.81;;;7.31
29549;BMP280;16487;53.094;8.800;2024-03-02T00:25:38;100252.44;;;7.28
29549;BMP280;16487;53.094;8.800;2024-03-02T00:28:05;100256.13;;;7.22
29549;BMP280;16487;53.094;8.800;2024-03-02T00:30:50;100254.81;;;7.20
29549;BMP280;16487;53.094;8.800;2024-03-02T00:33:19;100242.72;;;7.17
29549;BMP280;16487;53.094;8.800;2024-03-02T00:35:48;100246.19;;;7.18
29549;BMP280;16487;53.094;8.800;2024-03-02T00:38:15;100240.22;;;7.10
29549;BMP280;16487;53.094;8.800;2024-03-02T00:40:43;100239.22;;;7.17
29549;BMP280;16487;53.094;8.800;2024-03-02T00:46:00;100236.25;;;7.13
29549;BMP280;16487;53.094;8.800;2024-03-02T00:48:27;100230.66;;;7.15
29549;BMP280;16487;53.094;8.800;2024-03-02T00:50:55;100232.75;;;7.12
29549;BMP280;16487;53.094;8.800;2024-03-02T00:53:25;100236.50;;;7.11
29549;BMP280;16487;53.094;8.800;2024-03-02T00:55:53;100240.78;;;7.12
29549;BMP280;16487;53.094;8.800;2024-03-02T00:58:20;100241.59;;;7.13
29549;BMP280;16487;53.094;8.800;2024-03-02T01:00:47;100244.03;;;7.15
29549;BMP280;16487;53.094;8.800;2024-03-02T01:03:17;100236.50;;;7.11
29549;BMP280;16487;53.094;8.800;2024-03-02T01:05:45;100230.56;;;7.09
29549;BMP280;16487;53.094;8.800;2024-03-02T01:08:13;100225.28;;;7.15
29549;BMP280;16487;53.094;8.800;2024-03-02T01:10:41;100233.56;;;7.13
29549;BMP280;16487;53.094;8.800;2024-03-02T01:13:08;100233.56;;;7.13
29549;BMP280;16487;53.094;8.800;2024-03-02T01:15:35;100231.16;;;7.11
29549;BMP280;16487;53.094;8.800;2024-03-02T01:18:03;100231.16;;;7.11
29549;BMP280;16487;53.094;8.800;2024-03-02T01:20:31;100232.19;;;7.05
29549;BMP280;16487;53.094;8.800;2024-03-02T01:22:58;100221.75;;;7.04
29549;BMP280;16487;53.094;8.800;2024-03-02T01:25:28;100220.81;;;6.93
29549;BMP280;16487;53.094;8.800;2024-03-02T01:27:56;100229.13;;;6.96
29549;BMP280;16487;53.094;8.800;2024-03-02T01:30:23;100216.03;;;6.95
29549;BMP280;16487;53.094;8.800;2024-03-02T01:32:50;100220.59;;;6.94
29549;BMP280;16487;53.094;8.800;2024-03-02T01:35:17;100219.81;;;6.99
29549;BMP280;16487;53.094;8.800;2024-03-02T01:37:44;100220.81;;;6.93
29549;BMP280;16487;53.094;8.800;2024-03-02T01:40:12;100220.28;;;6.91
29549;BMP280;16487;53.094;8.800;2024-03-02T01:42:40;100217.84;;;6.89
29549;BMP280;16487;53.094;8.800;2024-03-02T01:45:08;100215.13;;;6.84
29549;BMP280;16487;53.094;8.800;2024-03-02T01:47:36;100212.50;;;6.89
29549;BMP280;16487;53.094;8.800;2024-03-02T01:50:04;100211.88;;;6.82
29549;BMP280;16487;53.094;8.800;2024-03-02T01:52:31;100199.53;;;6.76
29549;BMP280;16487;53.094;8.800;2024-03-02T01:54:58;100199.28;;;6.77
29549;BMP280;16487;53.094;8.800;2024-03-02T01:57:25;100190.72;;;6.75
29549;BMP280;16487;53.094;8.800;2024-03-02T01:59:54;100192.88;;;6.78
29549;BMP280;16487;53.094;8.800;2024-03-02T02:02:21;100192.34;;;6.76
29549;BMP280;16487;53.094;8.800;2024-03-02T02:04:48;100200.28;;;6.71
29549;BMP280;16487;53.094;8.800;2024-03-02T02:07:15;100198.97;;;6.74
29549;BMP280;16487;53.094;8.800;2024-03-02T02:09:42;100199.03;;;6.79
29549;BMP280;16487;53.094;8.800;2024-03-02T02:12:10;100188.84;;;6.76
29549;BMP280;16487;53.094;8.800;2024-03-02T02:14:37;100186.16;;;6.76
29549;BMP280;16487;53.094;8.800;2024-03-02T02:17:05;100180.50;;;6.72
29549;BMP280;16487;53.094;8.800;2024-03-02T02:19:33;100180.50;;;6.72
29549;BMP280;16487;53.094;8.800;2024-03-02T02:22:02;100171.88;;;6.65
29549;BMP280;16487;53.094;8.800;2024-03-02T02:24:29;100169.69;;;6.62
29549;BMP280;16487;53.094;8.800;2024-03-02T02:26:56;100163.03;;;6.65
29549;BMP280;16487;53.094;8.800;2024-03-02T02:29:23;100167.09;;;6.67
29549;BMP280;16487;53.094;8.800;2024-03-02T02:31:50;100171.31;;;6.63
29549;BMP280;16487;53.094;8.800;2024-03-02T02:34:17;100170.25;;;6.64
29549;BMP280;16487;53.094;8.800;2024-03-02T02:36:44;100176.09;;;6.61
29549;BMP280;16487;53.094;8.800;2024-03-02T02:39:15;100169.22;;;6.65
29549;BMP280;16487;53.094;8.800;2024-03-02T02:41:43;100168.91;;;6.61
29549;BMP280;16487;53.094;8.800;2024-03-02T02:44:10;100164.91;;;6.64
29549;BMP280;16487;53.094;8.800;2024-03-02T02:46:37;100160.31;;;6.59
29549;BMP280;16487;53.094;8.800;2024-03-02T02:49:04;100162.19;;;6.59
29549;BMP280;16487;53.094;8.800;2024-03-02T02:51:31;100156.56;;;6.55
29549;BMP280;16487;53.094;8.800;2024-03-02T02:53:58;100153.06;;;6.55
29549;BMP280;16487;53.094;8.800;2024-03-02T02:56:27;100154.63;;;6.51
29549;BMP280;16487;53.094;8.800;2024-03-02T02:58:54;100140.94;;;6.47
29549;BMP280;16487;53.094;8.800;2024-03-02T03:01:21;100138.50;;;6.45
29549;BMP280;16487;53.094;8.800;2024-03-02T03:03:48;100143.09;;;6.50
29549;BMP280;16487;53.094;8.800;2024-03-02T03:06:15;100142.25;;;6.44
29549;BMP280;16487;53.094;8.800;2024-03-02T03:08:42;100135.81;;;6.40
29549;BMP280;16487;53.094;8.800;2024-03-02T03:11:10;100132.34;;;6.40
29549;BMP280;16487;53.094;8.800;2024-03-02T03:13:38;100130.41;;;6.35
29549;BMP280;16487;53.094;8.800;2024-03-02T03:16:06;100124.00;;;6.36
29549;BMP280;16487;53.094;8.800;2024-03-02T03:18:33;100124.81;;;6.37
29549;BMP280;16487;53.094;8.800;2024-03-02T03:21:00;100126.16;;;6.39
29549;BMP280;16487;53.094;8.800;2024-03-02T03:23:27;100121.88;;;6.38
29549;BMP280;16487;53.094;8.800;2024-03-02T03:25:54;100123.50;;;6.39
29549;BMP280;16487;53.094;8.800;2024-03-02T03:28:21;100130.94;;;6.37
29549;BMP280;16487;53.094;8.800;2024-03-02T03:30:49;100119.47;;;6.42
29549;BMP280;16487;53.094;8.800;2024-03-02T03:33:17;100123.78;;;6.43
29549;BMP280;16487;53.094;8.800;2024-03-02T03:35:44;100119.25;;;6.43
29549;BMP280;16487;53.094;8.800;2024-03-02T03:38:12;100121.16;;;6.48
29549;BMP280;16487;53.094;8.800;2024-03-02T03:40:39;100119.75;;;6.40
29549;BMP280;16487;53.094;8.800;2024-03-02T03:43:06;100117.34;;;6.39
29549;BMP280;16487;53.094;8.800;2024-03-02T03:45:33;100110.13;;;6.39
29549;BMP280;16487;53.094;8.800;2024-03-02T03:48:02;100112.19;;;6.32
29549;BMP280;16487;53.094;8.800;2024-03-02T03:50:30;100112.28;;;6.42
29549;BMP280;16487;53.094;8.800;2024-03-02T03:52:57;100116.00;;;6.41
29549;BMP280;16487;53.094;8.800;2024-03-02T03:55:24;100122.16;;;6.42
29549;BMP280;16487;53.094;8.800;2024-03-02T03:57:51;100120.34;;;6.47
29549;BMP280;16487;53.094;8.800;2024-03-02T04:00:19;100133.22;;;6.51
29549;BMP280;16487;53.094;8.800;2024-03-02T04:02:46;100124.63;;;6.49
29549;BMP280;16487;53.094;8.800;2024-03-02T04:05:14;100123.06;;;6.53
29549;BMP280;16487;53.094;8.800;2024-03-02T04:07:41;100127.31;;;6.49
29549;BMP280;16487;53.094;8.800;2024-03-02T04:10:09;100117.66;;;6.47
29549;BMP280;16487;53.094;8.800;2024-03-02T04:12:37;100117.63;;;6.42
29549;BMP280;16487;53.094;8.800;2024-03-02T04:15:05;100113.88;;;6.43
29549;BMP280;16487;53.094;8.800;2024-03-02T04:17:33;100108.53;;;6.43
29549;BMP280;16487;53.094;8.800;2024-03-02T04:20:00;100106.91;;;6.42
29549;BMP280;16487;53.094;8.800;2024-03-02T04:22:28;100112.81;;;6.44
29549;BMP280;16487;53.094;8.800;2024-03-02T04:24:55;100104.19;;;6.37
29549;BMP280;16487;53.094;8.800;2024-03-02T04:27:23;100099.44;;;6.44
29549;BMP280;16487;53.094;8.800;2024-03-02T04:29:50;100105.88;;;6.43
29549;BMP280;16487;53.094;8.800;2024-03-02T04:32:17;100117.38;;;6.44
29549;BMP280;16487;53.094;8.800;2024-03-02T04:34:44;100122.44;;;6.45
29549;BMP280;16487;53.094;8.800;2024-03-02T04:37:11;100139.03;;;6.42
29549;BMP280;16487;53.094;8.800;2024-03-02T04:39:40;100145.56;;;6.52
29549;BMP280;16487;53.094;8.800;2024-03-02T04:42:07;100146.03;;;6.49
29549;BMP280;16487;53.094;8.800;2024-03-02T04:44:34;100150.59;;;6.48
29549;BMP280;16487;53.094;8.800;2024-03-02T04:47:02;100147.09;;;6.47
29549;BMP280;16487;53.094;8.800;2024-03-02T04:49:29;100155.06;;;6.42
29549;BMP280;16487;53.094;8.800;2024-03-02T04:51:56;100147.00;;;6.37
29549;BMP280;16487;53.094;8.800;2024-03-02T04:54:23;100155.84;;;6.38
29549;BMP280;16487;53.094;8.800;2024-03-02T04:56:52;100154.41;;;6.30
29549;BMP280;16487;53.094;8.800;2024-03-02T04:59:19;100149.44;;;6.39
29549;BMP280;16487;53.094;8.800;2024-03-02T05:01:46;100156.34;;;6.35
29549;BMP280;16487;53.094;8.800;2024-03-02T05:04:13;100155.47;;;6.29
29549;BMP280;16487;53.094;8.800;2024-03-02T05:06:41;100150.94;;;6.29
29549;BMP280;16487;53.094;8.800;2024-03-02T05:09:08;100146.69;;;6.34
29549;BMP280;16487;53.094;8.800;2024-03-02T05:11:36;100149.38;;;6.34
29549;BMP280;16487;53.094;8.800;2024-03-02T05:14:04;100158.44;;;6.33
29549;BMP280;16487;53.094;8.800;2024-03-02T05:16:33;100164.88;;;6.32
29549;BMP280;16487;53.094;8.800;2024-03-02T05:19:00;100159.28;;;6.33
29549;BMP280;16487;53.094;8.800;2024-03-02T05:21:28;100154.97;;;6.32
29549;BMP280;16487;53.094;8.800;2024-03-02T05:23:55;100151.47;;;6.26
29549;BMP280;16487;53.094;8.800;2024-03-02T05:26:22;100150.66;;;6.26
29549;BMP280;16487;53.094;8.800;2024-03-02T05:28:49;100150.34;;;6.22
29549;BMP280;16487;53.094;8.800;2024-03-02T05:31:19;100149.72;;;6.15
29549;BMP280;16487;53.094;8.800;2024-03-02T05:33:46;100149.22;;;6.18
29549;BMP280;16487;53.094;8.800;2024-03-02T05:36:14;100151.66;;;6.20
29549;BMP280;16487;53.094;8.800;2024-03-02T05:38:41;100154.88;;;6.22
29549;BMP280;16487;53.094;8.800;2024-03-02T05:41:08;100154.66;;;6.23
29549;BMP280;16487;53.094;8.800;2024-03-02T05:43:35;100162.44;;;6.30
29549;BMP280;16487;53.094;8.800;2024-03-02T05:46:03;100163.22;;;6.25
29549;BMP280;16487;53.094;8.800;2024-03-02T05:48:34;100171.78;;;6.27
29549;BMP280;16487;53.094;8.800;2024-03-02T05:51:01;100176.88;;;6.29
29549;BMP280;16487;53.094;8.800;2024-03-02T05:53:29;100175.28;;;6.28
29549;BMP280;16487;53.094;8.800;2024-03-02T05:55:56;100178.94;;;6.22
29549;BMP280;16487;53.094;8.800;2024-03-02T05:58:23;100169.81;;;6.18
29549;BMP280;16487;53.094;8.800;2024-03-02T06:00:50;100171.97;;;6.21
29549;BMP280;16487;53.094;8.800;2024-03-02T06:03:17;100179.78;;;6.22
29549;BMP280;16487;53.094;8.800;2024-03-02T06:05:46;100178.72;;;6.23
29549;BMP280;16487;53.094;8.800;2024-03-02T06:08:13;100173.38;;;6.23
29549;BMP280;16487;53.094;8.800;2024-03-02T06:10:40;100179.19;;;6.20
29549;BMP280;16487;53.094;8.800;2024-03-02T06:13:08;100183.50;;;6.21
29549;BMP280;16487;53.094;8.800;2024-03-02T06:15:35;100178.16;;;6.21
29549;BMP280;16487;53.094;8.800;2024-03-02T06:18:02;100187.78;;;6.22
29549;BMP280;16487;53.094;8.800;2024-03-02T06:20:34;100187.72;;;6.17
29549;BMP280;16487;53.094;8.800;2024-03-02T06:23:05;100177.00;;;6.17
29549;BMP280;16487;53.094;8.800;2024-03-02T06:25:32;100187.22;;;6.20
29549;BMP280;16487;53.094;8.800;2024-03-02T06:28:00;100186.66;;;6.18
29549;BMP280;16487;53.094;8.800;2024-03-02T06:30:27;100191.53;;;6.21
29549;BMP280;16487;53.094;8.800;2024-03-02T06:32:54;100188.59;;;6.23
29549;BMP280;16487;53.094;8.800;2024-03-02T06:35:21;100193.13;;;6.22
29549;BMP280;16487;53.094;8.800;2024-03-02T06:37:48;100203.09;;;6.27
29549;BMP280;16487;53.094;8.800;2024-03-02T06:40:17;100194.50;;;6.25
29549;BMP280;16487;53.094;8.800;2024-03-02T06:42:44;100198.81;;;6.31
29549;BMP280;16487;53.094;8.800;2024-03-02T06:45:11;100197.75;;;6.27
29549;BMP280;16487;53.094;8.800;2024-03-02T06:47:38;100198.25;;;6.29
29549;BMP280;16487;53.094;8.800;2024-03-02T06:50:06;100205.00;;;6.32
29549;BMP280;16487;53.094;8.800;2024-03-02T06:52:33;100211.72;;;6.34
29549;BMP280;16487;53.094;8.800;2024-03-02T06:55:00;100208.53;;;6.37
29549;BMP280;16487;53.094;8.800;2024-03-02T06:57:29;100214.69;;;6.38
29549;BMP280;16487;53.094;8.800;2024-03-02T06:59:56;100216.34;;;6.44
29549;BMP280;16487;53.094;8.800;2024-03-02T07:02:23;100217.47;;;6.48
29549;BMP280;16487;53.094;8.800;2024-03-02T07:04:51;100223.94;;;6.52
29549;BMP280;16487;53.094;8.800;2024-03-02T07:07:18;100229.31;;;6.57
29549;BMP280;16487;53.094;8.800;2024-03-02T07:09:45;100232.59;;;6.65
29549;BMP280;16487;53.094;8.800;2024-03-02T07:12:12;100228.38;;;6.69
29549;BMP280;16487;53.094;8.800;2024-03-02T07:14:41;100229.72;;;6.71
29549;BMP280;16487;53.094;8.800;2024-03-02T07:17:08;100238.88;;;6.75
29549;BMP280;16487;53.094;8.800;2024-03-02T07:19:35;100245.63;;;6.83
29549;BMP280;16487;53.094;8.800;2024-03-02T07:22:06;100254.22;;;6.85
29549;BMP280;16487;53.094;8.800;2024-03-02T07:24:39;100257.78;;;6.91
29549;BMP280;16487;53.094;8.800;2024-03-02T07:27:06;100253.97;;;6.87
29549;BMP280;16487;53.094;8.800;2024-03-02T07:29:33;100259.41;;;6.92
29549;BMP280;16487;53.094;8.800;2024-03-02T07:32:02;100274.66;;;6.96
29549;BMP280;16487;53.094;8.800;2024-03-02T07:34:29;100271.22;;;7.01
29549;BMP280;16487;53.094;8.800;2024-03-02T07:36:56;100271.00;;;7.03
29549;BMP280;16487;53.094;8.800;2024-03-02T07:39:23;100268.34;;;7.08
29549;BMP280;16487;53.094;8.800;2024-03-02T07:41:51;100273.72;;;7.13
29549;BMP280;16487;53.094;8.800;2024-03-02T07:44:18;100282.91;;;7.17
29549;BMP280;16487;53.094;8.800;2024-03-02T07:46:46;100282.13;;;7.22
29549;BMP280;16487;53.094;8.800;2024-03-02T07:49:16;100284.03;;;7.26
29549;BMP280;16487;53.094;8.800;2024-03-02T07:51:43;100281.09;;;7.28
29549;BMP280;16487;53.094;8.800;2024-03-02T07:54:11;100277.09;;;7.31
29549;BMP280;16487;53.094;8.800;2024-03-02T07:56:38;100275.53;;;7.35
29549;BMP280;16487;53.094;8.800;2024-03-02T07:59:05;100280.34;;;7.38
29549;BMP280;16487;53.094;8.800;2024-03-02T08:01:33;100278.25;;;7.45
29549;BMP280;16487;53.094;8.800;2024-03-02T08:04:01;100279.94;;;7.51
29549;BMP280;16487;53.094;8.800;2024-03-02T08:06:30;100295.75;;;7.53
29549;BMP280;16487;53.094;8.800;2024-03-02T08:08:57;100298.75;;;7.56
29549;BMP280;16487;53.094;8.800;2024-03-02T08:11:25;100299.56;;;7.62
29549;BMP280;16487;53.094;8.800;2024-03-02T08:13:52;100301.19;;;7.68
29549;BMP280;16487;53.094;8.800;2024-03-02T08:16:19;100291.59;;;7.72
29549;BMP280;16487;53.094;8.800;2024-03-02T08:18:47;100297.19;;;7.71
29549;BMP280;16487;53.094;8.800;2024-03-02T08:21:14;100298.06;;;7.76
29549;BMP280;16487;53.094;8.800;2024-03-02T08:23:43;100300.25;;;7.85
29549;BMP280;16487;53.094;8.800;2024-03-02T08:26:11;100300.78;;;7.87
29549;BMP280;16487;53.094;8.800;2024-03-02T08:28:39;100308.56;;;7.88
29549;BMP280;16487;53.094;8.800;2024-03-02T08:31:06;100309.41;;;7.94
29549;BMP280;16487;53.094;8.800;2024-03-02T08:33:34;100316.38;;;7.95
29549;BMP280;16487;53.094;8.800;2024-03-02T08:36:05;100323.34;;;7.91
29549;BMP280;16487;53.094;8.800;2024-03-02T08:38:32;100319.59;;;7.97
29549;BMP280;16487;53.094;8.800;2024-03-02T08:41:01;100326.38;;;8.10
29549;BMP280;16487;53.094;8.800;2024-03-02T08:43:28;100330.94;;;8.15
29549;BMP280;16487;53.094;8.800;2024-03-02T08:45:55;100339.84;;;8.20
29549;BMP280;16487;53.094;8.800;2024-03-02T08:48:22;100340.41;;;8.27
29549;BMP280;16487;53.094;8.800;2024-03-02T08:50:49;100352.53;;;8.35
29549;BMP280;16487;53.094;8.800;2024-03-02T08:53:17;100355.31;;;8.56
29549;BMP280;16487;53.094;8.800;2024-03-02T08:55:44;100362.25;;;8.57
29549;BMP280;16487;53.094;8.800;2024-03-02T08:58:13;100362.81;;;8.59
29549;BMP280;16487;53.094;8.800;2024-03-02T09:00:41;100376.03;;;8.76
29549;BMP280;16487;53.094;8.800;2024-03-02T09:03:08;100388.38;;;8.82
29549;BMP280;16487;53.094;8.800;2024-03-02T09:05:36;100383.84;;;8.83
29549;BMP280;16487;53.094;8.800;2024-03-02T09:08:03;100391.41;;;8.96
29549;BMP280;16487;53.094;8.800;2024-03-02T09:10:30;100395.97;;;8.95
29549;BMP280;16487;53.094;8.800;2024-03-02T09:12:58;100401.63;;;9.04
29549;BMP280;16487;53.094;8.800;2024-03-02T09:15:27;100414.81;;;9.26
29549;BMP280;16487;53.094;8.800;2024-03-02T09:17:54;100407.28;;;9.23
29549;BMP280;16487;53.094;8.800;2024-03-02T09:20:21;100415.59;;;9.27
29549;BMP280;16487;53.094;8.800;2024-03-02T09:22:48;100411.06;;;9.53
29549;BMP280;16487;53.094;8.800;2024-03-02T09:25:16;100405.41;;;9.39
29549;BMP280;16487;53.094;8.800;2024-03-02T09:27:43;100399.50;;;9.42
29549;BMP280;16487;53.094;8.800;2024-03-02T09:30:11;100405.16;;;9.51
29549;BMP280;16487;53.094;8.800;2024-03-02T09:32:40;100408.63;;;9.57
29549;BMP280;16487;53.094;8.800;2024-03-02T09:35:08;100408.38;;;9.58
29549;BMP280;16487;53.094;8.800;2024-03-02T09:37:35;100412.38;;;9.66
29549;BMP280;16487;53.094;8.800;2024-03-02T09:40:03;100423.69;;;9.68
29549;BMP280;16487;53.094;8.800;2024-03-02T09:42:30;100423.97;;;9.72
29549;BMP280;16487;53.094;8.800;2024-03-02T09:44:58;100422.06;;;9.77
29549;BMP280;16487;53.094;8.800;2024-03-02T09:47:25;100422.03;;;9.93
29549;BMP280;16487;53.094;8.800;2024-03-02T09:49:54;100433.34;;;10.00
29549;BMP280;16487;53.094;8.800;2024-03-02T09:52:22;100438.44;;;10.12
29549;BMP280;16487;53.094;8.800;2024-03-02T09:54:49;100439.25;;;10.02
29549;BMP280;16487;53.094;8.800;2024-03-02T09:57:16;100445.16;;;10.14
29549;BMP280;16487;53.094;8.800;2024-03-02T09:59:44;100433.84;;;10.12
29549;BMP280;16487;53.094;8.800;2024-03-02T10:02:11;100447.00;;;10.35
29549;BMP280;16487;53.094;8.800;2024-03-02T10:04:38;100446.44;;;10.43
29549;BMP280;16487;53.094;8.800;2024-03-02T10:07:14;100455.22;;;10.64
29549;BMP280;16487;53.094;8.800;2024-03-02T10:09:43;100453.53;;;10.83
29549;BMP280;16487;53.094;8.800;2024-03-02T10:12:12;100448.31;;;10.97
29549;BMP280;16487;53.094;8.800;2024-03-02T10:14:40;100449.94;;;10.98
29549;BMP280;16487;53.094;8.800;2024-03-02T10:17:10;100453.44;;;10.94
29549;BMP280;16487;53.094;8.800;2024-03-02T10:19:38;100458.19;;;11.12
29549;BMP280;16487;53.094;8.800;2024-03-02T10:22:06;100462.06;;;11.41
29549;BMP280;16487;53.094;8.800;2024-03-02T10:24:39;100486.59;;;11.74
29549;BMP280;16487;53.094;8.800;2024-03-02T10:27:07;100476.59;;;11.79
29549;BMP280;16487;53.094;8.800;2024-03-02T10:29:37;100488.25;;;11.99
29549;BMP280;16487;53.094;8.800;2024-03-02T10:32:04;100511.31;;;13.07
29549;BMP280;16487;53.094;8.800;2024-03-02T10:34:31;100523.13;;;13.30
29549;BMP280;16487;53.094;8.800;2024-03-02T10:36:59;100505.22;;;13.34
29549;BMP280;16487;53.094;8.800;2024-03-02T10:39:28;100523.03;;;13.54
29549;BMP280;16487;53.094;8.800;2024-03-02T10:41:58;100549.94;;;14.53
29549;BMP280;16487;53.094;8.800;2024-03-02T10:44:26;100543.22;;;14.37
29549;BMP280;16487;53.094;8.800;2024-03-02T10:46:53;100527.50;;;13.78
29549;BMP280;16487;53.094;8.800;2024-03-02T10:49:23;100540.94;;;14.30
29549;BMP280;16487;53.094;8.800;2024-03-02T10:51:50;100544.63;;;14.34
29549;BMP280;16487;53.094;8.800;2024-03-02T10:54:17;100532.66;;;14.21
29549;BMP280;16487;53.094;8.800;2024-03-02T10:56:46;100528.03;;;13.94
29549;BMP280;16487;53.094;8.800;2024-03-02T10:59:17;100538.53;;;14.56
29549;BMP280;16487;53.094;8.800;2024-03-02T11:01:50;100551.91;;;14.89
29549;BMP280;16487;53.094;8.800;2024-03-02T11:04:18;100540.31;;;14.75
29549;BMP280;16487;53.094;8.800;2024-03-02T11:06:48;100564.34;;;15.04
29549;BMP280;16487;53.094;8.800;2024-03-02T11:09:19;100562.84;;;14.98
29549;BMP280;16487;53.094;8.800;2024-03-02T11:11:52;100551.66;;;15.59
29549;BMP280;16487;53.094;8.800;2024-03-02T11:14:24;100571.22;;;15.69
29549;BMP280;16487;53.094;8.800;2024-03-02T11:16:52;100550.69;;;15.32
29549;BMP280;16487;53.094;8.800;2024-03-02T11:19:19;100574.81;;;15.79
29549;BMP280;16487;53.094;8.800;2024-03-02T11:21:50;100585.63;;;16.42
29549;BMP280;16487;53.094;8.800;2024-03-02T11:24:30;100601.22;;;16.18
29549;BMP280;16487;53.094;8.800;2024-03-02T11:27:01;100594.47;;;16.56
29549;BMP280;16487;53.094;8.800;2024-03-02T11:29:48;100571.75;;;16.69
29549;BMP280;16487;53.094;8.800;2024-03-02T11:32:16;100592.78;;;16.37
29549;BMP280;16487;53.094;8.800;2024-03-02T11:34:46;100579.91;;;16.61
29549;BMP280;16487;53.094;8.800;2024-03-02T11:37:13;100591.50;;;17.10
29549;BMP280;16487;53.094;8.800;2024-03-02T11:39:43;100587.31;;;16.78
29549;BMP280;16487;53.094;8.800;2024-03-02T11:42:11;100589.75;;;17.23
29549;BMP280;16487;53.094;8.800;2024-03-02T11:44:38;100589.91;;;17.91
29549;BMP280;16487;53.094;8.800;2024-03-02T11:47:07;100598.28;;;17.95
29549;BMP280;16487;53.094;8.800;2024-03-02T11:49:38;100580.53;;;18.18
29549;BMP280;16487;53.094;8.800;2024-03-02T11:52:07;100592.69;;;18.51
29549;BMP280;16487;53.094;8.800;2024-03-02T11:54:34;100597.03;;;19.15
29549;BMP280;16487;53.094;8.800;2024-03-02T11:57:03;100621.59;;;19.94
29549;BMP280;16487;53.094;8.800;2024-03-02T11:59:32;100599.38;;;18.62
29549;BMP280;16487;53.094;8.800;2024-03-02T12:02:01;100598.69;;;19.28
29549;BMP280;16487;53.094;8.800;2024-03-02T12:04:31;100582.66;;;18.85
29549;BMP280;16487;53.094;8.800;2024-03-02T12:07:00;100598.09;;;19.81
29549;BMP280;16487;53.094;8.800;2024-03-02T12:09:28;100581.19;;;19.08
29549;BMP280;16487;53.094;8.800;2024-03-02T12:12:03;100591.13;;;18.92
29549;BMP280;16487;53.094;8.800;2024-03-02T12:14:32;100590.38;;;19.04
29549;BMP280;16487;53.094;8.800;2024-03-02T12:17:00;100577.94;;;18.73
29549;BMP280;16487;53.094;8.800;2024-03-02T12:19:32;100588.34;;;18.50
29549;BMP280;16487;53.094;8.800;2024-03-02T12:22:00;100573.28;;;19.07
29549;BMP280;16487;53.094;8.800;2024-03-02T12:24:29;100563.53;;;18.43
29549;BMP280;16487;53.094;8.800;2024-03-02T12:26:57;100571.97;;;18.59
29549;BMP280;16487;53.094;8.800;2024-03-02T12:29:24;100572.50;;;18.73
29549;BMP280;16487;53.094;8.800;2024-03-02T12:31:52;100590.13;;;18.97
29549;BMP280;16487;53.094;8.800;2024-03-02T12:34:21;100569.19;;;19.01
29549;BMP280;16487;53.094;8.800;2024-03-02T12:36:50;100570.16;;;18.63
29549;BMP280;16487;53.094;8.800;2024-03-02T12:39:18;100591.72;;;19.31
29549;BMP280;16487;53.094;8.800;2024-03-02T12:41:45;100596.97;;;19.24
29549;BMP280;16487;53.094;8.800;2024-03-02T12:44:12;100591.94;;;19.59
29549;BMP280;16487;53.094;8.800;2024-03-02T12:46:40;100616.25;;;20.35
29549;BMP280;16487;53.094;8.800;2024-03-02T12:49:10;100628.91;;;20.27
29549;BMP280;16487;53.094;8.800;2024-03-02T12:51:39;100598.09;;;19.69
29549;BMP280;16487;53.094;8.800;2024-03-02T12:54:08;100597.78;;;19.95
29549;BMP280;16487;53.094;8.800;2024-03-02T12:56:35;100584.84;;;19.58
29549;BMP280;16487;53.094;8.800;2024-03-02T12:59:03;100572.44;;;19.15
29549;BMP280;16487;53.094;8.800;2024-03-02T13:01:30;100572.16;;;18.96
29549;BMP280;16487;53.094;8.800;2024-03-02T13:03:58;100563.09;;;19.16
29549;BMP280;16487;53.094;8.800;2024-03-02T13:06:26;100549.56;;;18.44
29549;BMP280;16487;53.094;8.800;2024-03-02T13:08:55;100545.63;;;18.96
29549;BMP280;16487;53.094;8.800;2024-03-02T13:11:24;100523.25;;;18.18
29549;BMP280;16487;53.094;8.800;2024-03-02T13:13:51;100542.72;;;18.80
29549;BMP280;16487;53.094;8.800;2024-03-02T13:16:19;100560.69;;;19.02
29549;BMP280;16487;53.094;8.800;2024-03-02T13:18:55;100538.66;;;18.86
29549;BMP280;16487;53.094;8.800;2024-03-02T13:21:22;100558.91;;;19.64
29549;BMP280;16487;53.094;8.800;2024-03-02T13:23:51;100551.75;;;19.14
29549;BMP280;16487;53.094;8.800;2024-03-02T13:26:18;100552.13;;;19.25
29549;BMP280;16487;53.094;8.800;2024-03-02T13:28:47;100556.63;;;19.54
29549;BMP280;16487;53.094;8.800;2024-03-02T13:31:14;100549.00;;;19.60
29549;BMP280;16487;53.094;8.800;2024-03-02T13:33:41;100555.03;;;19.90
29549;BMP280;16487;53.094;8.800;2024-03-02T13:36:08;100550.63;;;20.10
29549;BMP280;16487;53.094;8.800;2024-03-02T13:38:35;100549.69;;;19.94
29549;BMP280;16487;53.094;8.800;2024-03-02T13:41:05;100534.50;;;20.21
29549;BMP280;16487;53.094;8.800;2024-03-02T13:43:32;100524.00;;;19.24
29549;BMP280;16487;53.094;8.800;2024-03-02T13:46:01;100522.78;;;19.59
29549;BMP280;16487;53.094;8.800;2024-03-02T13:48:29;100532.81;;;20.16
29549;BMP280;16487;53.094;8.800;2024-03-02T13:50:57;100515.28;;;19.43
29549;BMP280;16487;53.094;8.800;2024-03-02T13:53:24;100502.75;;;18.97
29549;BMP280;16487;53.094;8.800;2024-03-02T13:55:51;100507.63;;;19.37
29549;BMP280;16487;53.094;8.800;2024-03-02T13:58:18;100485.66;;;18.87
29549;BMP280;16487;53.094;8.800;2024-03-02T14:00:46;100498.81;;;19.06
29549;BMP280;16487;53.094;8.800;2024-03-02T14:03:14;100502.09;;;19.58
29549;BMP280;16487;53.094;8.800;2024-03-02T14:05:43;100500.75;;;19.18
29549;BMP280;16487;53.094;8.800;2024-03-02T14:08:10;100491.22;;;18.58
29549;BMP280;16487;53.094;8.800;2024-03-02T14:10:37;100501.53;;;19.19